Time;durP1;ratioP1;P1;durP2;ratioP2;P2;SDS_P1;SDS_P2;PMS_P1;PMS_P2;Temp;Humidity;BMP_temperature;BMP_pressure;BME280_temperature;BME280_humidity;BME280_pressure;Samples;Min_cycle;Max_cycle;Signal;HPM_P1;HPM_P2
2021/05/21 00:01:23;;;;;;;;;;;;;;;9.22;71.38;98270.61;1698794;82;21994;-85
2021/05/21 00:03:49;;;;;;;;;;;;;;;9.16;71.42;98264.52;1687700;83;26411;-85
2021/05/21 00:06:15;;;;;;;;;;;;;;;9.11;71.49;98268.72;1706786;82;24551;-85
2021/05/21 00:08:44;;;;;;;;;;;;;;;9.09;71.55;98263.25;1681180;83;20368;-85
2021/05/21 00:11:13;;;;;;;;;;;;;;;9.09;71.63;98264.09;1694508;82;24943;-85
2021/05/21 00:13:40;;;;;;;;;;;;;;;9.08;71.69;98257.66;1703896;82;21451;-85
2021/05/21 00:16:06;;;;;;;;;;;;;;;9.06;71.75;98256.91;1710892;82;26084;-85
2021/05/21 00:18:31;;;;;;;;;;;;;;;9.05;71.83;98256.56;1702510;82;20333;-85
2021/05/21 00:23:48;;;;;;;;;;;;;;;9.06;71.96;98253.83;1644287;86;24852;-85
2021/05/21 00:26:14;;;;;;;;;;;;;;;9.06;72.03;98253.83;1647701;86;22540;-85
2021/05/21 00:28:42;;;;;;;;;;;;;;;9.02;72.05;98251.53;1600994;88;26204;-85
2021/05/21 00:31:08;;;;;;;;;;;;;;;8.99;72.10;98251.28;1653526;85;24506;-86
2021/05/21 00:33:34;;;;;;;;;;;;;;;8.98;72.16;98255.30;1651479;85;20733;-85
2021/05/21 00:36:00;;;;;;;;;;;;;;;8.97;72.21;98245.78;1598781;87;20339;-86
2021/05/21 00:38:26;;;;;;;;;;;;;;;8.96;72.24;98249.33;1594319;88;22014;-85
2021/05/21 00:40:52;;;;;;;;;;;;;;;8.94;72.31;98246.84;1632964;86;26026;-85
2021/05/21 00:43:18;;;;;;;;;;;;;;;8.92;72.38;98248.70;1644237;86;24441;-85
2021/05/21 00:45:44;;;;;;;;;;;;;;;8.92;72.45;98245.25;1647088;85;20315;-86
2021/05/21 00:48:10;;;;;;;;;;;;;;;8.93;72.50;98244.32;1644037;85;25018;-86
2021/05/21 00:50:36;;;;;;;;;;;;;;;8.92;72.56;98244.79;1592551;87;21934;-86
2021/05/21 00:53:04;;;;;;;;;;;;;;;8.91;72.63;98248.80;1620262;86;21306;-86
2021/05/21 00:55:32;;;;;;;;;;;;;;;8.88;72.69;98248.55;1613838;87;24460;-86
2021/05/21 00:57:58;;;;;;;;;;;;;;;8.86;72.74;98240.44;1605509;87;20292;-85
2021/05/21 01:00:24;;;;;;;;;;;;;;;8.88;72.78;98243.80;1587491;88;25010;-86
2021/05/21 01:02:50;;;;;;;;;;;;;;;8.87;72.85;98239.04;1616150;87;21978;-86
2021/05/21 01:05:16;;;;;;;;;;;;;;;8.86;72.89;98239.13;1608810;87;26078;-86
2021/05/21 01:07:42;;;;;;;;;;;;;;;8.82;72.96;98239.81;1607089;88;24461;-86
2021/05/21 01:10:09;;;;;;;;;;;;;;;8.81;72.98;98240.75;1626314;87;20290;-86
2021/05/21 01:12:35;;;;;;;;;;;;;;;8.78;73.04;98234.44;1629046;87;24758;-86
2021/05/21 01:15:05;;;;;;;;;;;;;;;8.76;73.07;98234.53;1622248;87;22090;-86
2021/05/21 01:17:31;;;;;;;;;;;;;;;8.72;73.11;98231.77;1628238;87;26167;-85
2021/05/21 01:19:57;;;;;;;;;;;;;;;8.74;73.15;98234.25;1648018;85;25087;-86
2021/05/21 01:22:23;;;;;;;;;;;;;;;8.73;73.21;98229.96;1645176;83;20351;-86
2021/05/21 01:24:49;;;;;;;;;;;;;;;8.68;73.23;98231.57;1678366;83;24763;-86
2021/05/21 01:27:17;;;;;;;;;;;;;;;8.66;73.29;98233.47;1683171;83;22173;-86
2021/05/21 01:29:43;;;;;;;;;;;;;;;8.60;73.32;98229.95;1687502;83;25984;-86
2021/05/21 01:32:11;;;;;;;;;;;;;;;8.57;73.36;98220.16;1684928;83;25258;-85
2021/05/21 01:34:38;;;;;;;;;;;;;;;8.57;73.43;98216.25;1694478;83;20318;-85
2021/05/21 01:37:12;;;;;;;;;;;;;;;8.56;73.47;98216.75;1688873;83;24799;-85
2021/05/21 01:39:35;;;;;;;;;;;;;;;8.56;73.56;98212.83;1679865;83;22252;-85
2021/05/21 01:42:01;;;;;;;;;;;;;;;8.57;73.59;98211.88;1697578;83;25971;-85
2021/05/21 01:44:27;;;;;;;;;;;;;;;8.58;73.66;98207.49;1696156;83;24512;-85
2021/05/21 01:46:54;;;;;;;;;;;;;;;8.60;73.71;98210.38;1690774;83;20228;-85
2021/05/21 01:49:20;;;;;;;;;;;;;;;8.62;73.77;98200.67;1688089;83;25096;-85
2021/05/21 01:51:54;;;;;;;;;;;;;;;8.63;73.81;98204.95;1688367;83;22074;-84
2021/05/21 01:54:20;;;;;;;;;;;;;;;8.63;73.86;98202.34;1690128;83;26204;-85
2021/05/21 01:56:51;;;;;;;;;;;;;;;8.64;73.91;98199.27;1692532;83;20251;-85
2021/05/21 01:59:17;;;;;;;;;;;;;;;8.62;73.96;98199.36;1686757;83;20312;-84
2021/05/21 02:01:47;;;;;;;;;;;;;;;8.61;73.99;98195.11;1695867;83;25065;-85
2021/05/21 02:04:14;;;;;;;;;;;;;;;8.61;74.01;98195.57;1698595;83;22030;-84
2021/05/21 02:06:43;;;;;;;;;;;;;;;8.58;74.06;98203.11;1691349;83;26179;-85
2021/05/21 02:09:10;;;;;;;;;;;;;;;8.57;74.08;98199.30;1684884;83;24470;-85
2021/05/21 02:11:37;;;;;;;;;;;;;;;8.56;74.13;98193.73;1690186;83;20622;-84
2021/05/21 02:14:04;;;;;;;;;;;;;;;8.59;74.19;98206.56;1689492;83;24924;-85
2021/05/21 02:16:30;;;;;;;;;;;;;;;8.61;74.22;98211.22;1691716;83;21902;-85
2021/05/21 02:18:56;;;;;;;;;;;;;;;8.60;74.28;98214.77;1700953;83;26035;-85
2021/05/21 02:21:28;;;;;;;;;;;;;;;8.61;74.31;98209.45;1684356;83;24377;-85
2021/05/21 02:23:51;;;;;;;;;;;;;;;8.59;74.35;98206.09;1671839;83;20375;-85
2021/05/21 02:26:18;;;;;;;;;;;;;;;8.59;74.38;98211.78;1661142;85;24995;-85
2021/05/21 02:28:44;;;;;;;;;;;;;;;8.59;74.41;98200.88;1654363;86;22080;-85
2021/05/21 02:31:10;;;;;;;;;;;;;;;8.65;74.46;98201.79;1658627;86;26637;-84
2021/05/21 02:33:36;;;;;;;;;;;;;;;8.70;74.51;98197.10;1659414;86;24519;-84
2021/05/21 02:36:02;;;;;;;;;;;;;;;8.73;74.54;98192.13;1656719;86;20318;-85
2021/05/21 02:38:29;;;;;;;;;;;;;;;8.72;74.59;98195.23;1654755;86;24747;-85
2021/05/21 02:40:54;;;;;;;;;;;;;;;8.72;74.61;98188.72;1657481;86;20292;-85
2021/05/21 02:43:21;;;;;;;;;;;;;;;8.72;74.64;98188.72;1658062;85;21034;-85
2021/05/21 02:45:47;;;;;;;;;;;;;;;8.79;74.67;98189.95;1632550;85;25340;-85
2021/05/21 02:48:13;;;;;;;;;;;;;;;8.78;74.71;98186.17;1652683;86;20233;-85
2021/05/21 02:50:42;;;;;;;;;;;;;;;8.76;74.71;98185.42;1658400;85;25430;-85
2021/05/21 02:53:07;;;;;;;;;;;;;;;8.77;74.72;98191.02;1657673;85;22238;-85
2021/05/21 02:55:33;;;;;;;;;;;;;;;8.73;74.72;98189.06;1655334;86;21038;-85
2021/05/21 02:58:00;;;;;;;;;;;;;;;8.76;74.74;98192.78;1648086;86;25594;-85
2021/05/21 03:00:26;;;;;;;;;;;;;;;8.73;74.72;98191.66;1656262;86;20269;-85
2021/05/21 03:02:52;;;;;;;;;;;;;;;8.70;74.74;98187.97;1652427;86;25563;-85
2021/05/21 03:05:22;;;;;;;;;;;;;;;8.67;74.73;98186.05;1660707;86;21968;-85
2021/05/21 03:07:48;;;;;;;;;;;;;;;8.66;74.75;98189.58;1649799;86;26142;-85
2021/05/21 03:10:17;;;;;;;;;;;;;;;8.64;74.78;98187.06;1643246;86;24474;-85
2021/05/21 03:12:44;;;;;;;;;;;;;;;8.62;74.79;98179.80;1642993;86;20289;-85
2021/05/21 03:15:11;;;;;;;;;;;;;;;8.60;74.83;98187.37;1654972;86;20236;-85
2021/05/21 03:17:37;;;;;;;;;;;;;;;8.59;74.85;98180.48;1656214;86;22144;-85
2021/05/21 03:20:04;;;;;;;;;;;;;;;8.63;74.90;98184.55;1655989;86;25921;-85
2021/05/21 03:22:30;;;;;;;;;;;;;;;8.66;74.91;98185.20;1661084;83;24496;-85
2021/05/21 03:25:03;;;;;;;;;;;;;;;8.67;74.94;98189.95;1689957;83;20336;-85
2021/05/21 03:27:24;;;;;;;;;;;;;;;8.67;74.97;98182.13;1674898;84;24959;-85
2021/05/21 03:29:50;;;;;;;;;;;;;;;8.67;74.97;98183.44;1648763;86;22062;-85
2021/05/21 03:32:17;;;;;;;;;;;;;;;8.61;75.00;98174.24;1670086;85;25943;-85
2021/05/21 03:34:43;;;;;;;;;;;;;;;8.55;75.02;98185.54;1683642;84;24448;-86
2021/05/21 03:37:12;;;;;;;;;;;;;;;8.56;75.05;98171.10;1648435;86;20610;-85
2021/05/21 03:39:38;;;;;;;;;;;;;;;8.60;75.10;98167.34;1654885;85;25636;-85
2021/05/21 03:42:06;;;;;;;;;;;;;;;8.68;75.18;98173.34;1696675;84;22194;-85
2021/05/21 03:44:32;;;;;;;;;;;;;;;8.77;75.22;98168.38;1690370;84;26237;-85
2021/05/21 03:47:02;;;;;;;;;;;;;;;8.81;75.30;98165.91;1689067;84;24528;-85
2021/05/21 03:49:28;;;;;;;;;;;;;;;8.95;75.40;98168.05;1684148;84;20523;-85
2021/05/21 03:51:55;;;;;;;;;;;;;;;9.09;75.48;98167.97;1653835;85;24877;-86
2021/05/21 03:54:24;;;;;;;;;;;;;;;9.23;75.53;98169.16;1688003;83;22702;-86
2021/05/21 03:56:51;;;;;;;;;;;;;;;9.31;75.58;98160.81;1675351;83;25974;-85
2021/05/21 03:59:17;;;;;;;;;;;;;;;9.36;75.58;98157.41;1696552;83;24413;-85
2021/05/21 04:01:45;;;;;;;;;;;;;;;9.41;75.59;98165.75;1690229;83;20276;-85
2021/05/21 04:04:11;;;;;;;;;;;;;;;9.47;75.60;98164.86;1684917;83;24792;-86
2021/05/21 04:06:37;;;;;;;;;;;;;;;9.55;75.61;98163.00;1685754;83;22090;-86
2021/05/21 04:09:06;;;;;;;;;;;;;;;9.62;75.64;98162.48;1689637;83;26043;-86
2021/05/21 04:11:32;;;;;;;;;;;;;;;9.71;75.64;98174.05;1683362;83;25049;-85
2021/05/21 04:13:59;;;;;;;;;;;;;;;9.79;75.64;98164.37;1688460;83;20281;-85
2021/05/21 04:16:25;;;;;;;;;;;;;;;9.83;75.64;98167.13;1693497;83;25184;-85
2021/05/21 04:18:53;;;;;;;;;;;;;;;9.91;75.64;98172.66;1685463;83;20285;-85
2021/05/21 04:21:20;;;;;;;;;;;;;;;9.98;75.67;98172.09;1691199;83;26590;-85
2021/05/21 04:23:47;;;;;;;;;;;;;;;10.03;75.65;98176.55;1654831;84;24353;-85
2021/05/21 04:26:14;;;;;;;;;;;;;;;10.13;75.69;98179.80;1614504;87;20286;-85
2021/05/21 04:28:40;;;;;;;;;;;;;;;10.22;75.67;98177.38;1630868;86;24782;-85
2021/05/21 04:31:06;;;;;;;;;;;;;;;10.31;75.70;98185.05;1624486;86;22288;-85
2021/05/21 04:33:34;;;;;;;;;;;;;;;10.40;75.73;98178.66;1631517;87;26042;-86
2021/05/21 04:36:00;;;;;;;;;;;;;;;10.49;75.73;98170.60;1652441;85;25314;-86
2021/05/21 04:38:28;;;;;;;;;;;;;;;10.59;75.74;98165.52;1625142;86;20209;-86
2021/05/21 04:40:54;;;;;;;;;;;;;;;10.73;75.76;98175.34;1645447;86;24790;-86
2021/05/21 04:43:25;;;;;;;;;;;;;;;10.82;75.73;98172.02;1654090;85;22908;-85
2021/05/21 04:45:51;;;;;;;;;;;;;;;10.96;75.69;98165.77;1644784;87;25524;-85
2021/05/21 04:48:17;;;;;;;;;;;;;;;11.06;75.68;98163.27;1652805;86;23805;-85
2021/05/21 04:50:44;;;;;;;;;;;;;;;11.13;75.69;98160.52;1648185;85;20598;-85
2021/05/21 04:53:11;;;;;;;;;;;;;;;11.21;75.66;98159.00;1642019;85;25428;-85
2021/05/21 04:55:47;;;;;;;;;;;;;;;11.30;75.64;98158.29;1653228;85;20295;-85
2021/05/21 04:58:10;;;;;;;;;;;;;;;11.31;75.60;98152.10;1647247;85;26057;-85
2021/05/21 05:00:37;;;;;;;;;;;;;;;11.31;75.52;98153.41;1645127;86;24430;-86
2021/05/21 05:03:04;;;;;;;;;;;;;;;11.35;75.45;98157.13;1643134;86;20288;-85
2021/05/21 05:05:30;;;;;;;;;;;;;;;11.40;75.39;98154.47;1651259;85;24760;-85
2021/05/21 05:07:56;;;;;;;;;;;;;;;11.46;75.33;98161.86;1657424;85;22056;-86
2021/05/21 05:10:22;;;;;;;;;;;;;;;11.51;75.26;98161.53;1650000;85;21045;-86
2021/05/21 05:12:48;;;;;;;;;;;;;;;11.56;75.24;98160.22;1657933;85;25180;-86
2021/05/21 05:15:14;;;;;;;;;;;;;;;11.62;75.19;98161.49;1651449;85;20232;-86
2021/05/21 05:17:41;;;;;;;;;;;;;;;11.64;75.16;98159.59;1658059;85;20363;-86
2021/05/21 05:20:09;;;;;;;;;;;;;;;11.65;75.12;98162.11;1658317;85;22072;-86
2021/05/21 05:22:42;;;;;;;;;;;;;;;11.70;75.08;98163.05;1654268;85;25952;-85
2021/05/21 05:25:11;;;;;;;;;;;;;;;11.77;75.06;98152.95;1658761;85;24570;-85
2021/05/21 05:27:37;;;;;;;;;;;;;;;11.82;75.02;98155.57;1666912;85;20337;-86
2021/05/21 05:30:04;;;;;;;;;;;;;;;11.90;74.99;98152.31;1672244;85;24826;-85
2021/05/21 05:32:32;;;;;;;;;;;;;;;11.98;74.99;98153.39;1670569;85;22699;-85
2021/05/21 05:34:58;;;;;;;;;;;;;;;12.01;74.95;98147.89;1671834;85;25932;-85
2021/05/21 05:37:24;;;;;;;;;;;;;;;11.99;74.85;98147.20;1654821;85;25369;-85
2021/05/21 05:39:50;;;;;;;;;;;;;;;12.09;74.76;98149.91;1651830;83;20366;-85
2021/05/21 05:42:16;;;;;;;;;;;;;;;12.23;74.75;98153.55;1663452;83;24846;-85
2021/05/21 05:44:42;;;;;;;;;;;;;;;12.35;74.75;98151.25;1617317;87;20495;-85
2021/05/21 05:47:08;;;;;;;;;;;;;;;12.38;74.70;98148.87;1635954;86;21019;-85
2021/05/21 05:49:34;;;;;;;;;;;;;;;12.40;74.60;98153.02;1637982;86;20339;-86
2021/05/21 05:52:01;;;;;;;;;;;;;;;12.41;74.48;98148.61;1629522;86;20300;-85
2021/05/21 05:54:27;;;;;;;;;;;;;;;12.42;74.34;98151.59;1622372;86;24875;-86
2021/05/21 05:56:54;;;;;;;;;;;;;;;12.43;74.27;98146.22;1650608;86;22099;-85
2021/05/21 05:59:20;;;;;;;;;;;;;;;12.45;74.17;98148.22;1654393;86;26138;-86
2021/05/21 06:01:47;;;;;;;;;;;;;;;12.49;74.10;98152.25;1611275;87;24486;-86
2021/05/21 06:04:13;;;;;;;;;;;;;;;12.56;74.06;98150.80;1621342;86;20364;-86
2021/05/21 06:06:42;;;;;;;;;;;;;;;12.66;74.02;98136.42;1651850;84;25003;-86
2021/05/21 06:09:09;;;;;;;;;;;;;;;12.78;74.00;98128.84;1631252;86;21954;-86
2021/05/21 06:11:36;;;;;;;;;;;;;;;12.92;73.99;98135.11;1624480;86;26025;-85
2021/05/21 06:14:05;;;;;;;;;;;;;;;13.04;73.96;98135.84;1649447;85;24532;-85
2021/05/21 06:16:31;;;;;;;;;;;;;;;13.16;73.95;98127.44;1691791;83;20328;-85
2021/05/21 06:18:59;;;;;;;;;;;;;;;13.25;73.89;98124.88;1680750;84;20392;-85
2021/05/21 06:21:25;;;;;;;;;;;;;;;13.35;73.81;98127.55;1689129;83;21974;-85
2021/05/21 06:23:51;;;;;;;;;;;;;;;13.42;73.72;98127.34;1688473;83;26029;-86
2021/05/21 06:28:51;;;;;;;;;;;;;;;13.60;73.48;98119.19;1696146;83;20310;-85
2021/05/21 06:31:17;;;;;;;;;;;;;;;13.69;73.39;98116.25;1692498;83;24980;-85
2021/05/21 06:33:43;;;;;;;;;;;;;;;13.78;73.27;98114.95;1698667;83;22071;-85
2021/05/21 06:36:13;;;;;;;;;;;;;;;13.85;73.18;98115.26;1687792;83;25961;-85
2021/05/21 06:38:43;;;;;;;;;;;;;;;13.93;73.05;98111.93;1694779;83;24667;-85
2021/05/21 06:41:09;;;;;;;;;;;;;;;13.97;72.95;98104.10;1688089;83;20200;-86
2021/05/21 06:43:37;;;;;;;;;;;;;;;13.99;72.80;98100.38;1674989;83;20533;-85
2021/05/21 06:46:03;;;;;;;;;;;;;;;14.02;72.65;98098.78;1691213;83;22058;-85
2021/05/21 06:48:32;;;;;;;;;;;;;;;14.00;72.47;98096.79;1691451;83;26178;-86
2021/05/21 06:51:00;;;;;;;;;;;;;;;14.00;72.32;98097.27;1687503;83;24590;-86
2021/05/21 06:53:27;;;;;;;;;;;;;;;13.97;72.14;98085.69;1692426;83;20192;-86
2021/05/21 06:55:54;;;;;;;;;;;;;;;13.99;71.97;98079.34;1688230;83;24763;-86
2021/05/21 06:58:20;;;;;;;;;;;;;;;14.00;71.83;98077.06;1695543;83;22009;-86
2021/05/21 07:00:48;;;;;;;;;;;;;;;14.03;71.65;98074.14;1693393;83;26027;-86
2021/05/21 07:03:14;;;;;;;;;;;;;;;14.07;71.49;98072.08;1684745;83;24449;-86
2021/05/21 07:08:28;;;;;;;;;;;;;;;14.21;71.28;98063.28;1649458;85;24921;-85
2021/05/21 07:11:00;;;;;;;;;;;;;;;14.28;71.21;98050.41;1643217;83;22859;-87
2021/05/21 07:13:29;;;;;;;;;;;;;;;14.33;70.97;98048.66;1678197;83;25913;-86
2021/05/21 07:15:54;;;;;;;;;;;;;;;14.38;70.64;98049.94;1677379;83;25056;-86
2021/05/21 07:18:21;;;;;;;;;;;;;;;14.42;70.42;98051.31;1682426;83;20890;-87
2021/05/21 07:20:47;;;;;;;;;;;;;;;14.48;70.27;98046.80;1670083;84;24941;-86
2021/05/21 07:23:14;;;;;;;;;;;;;;;14.54;70.03;98046.24;1661255;83;22010;-86
2021/05/21 07:25:40;;;;;;;;;;;;;;;14.62;69.81;98042.88;1661086;85;26033;-86
2021/05/21 07:28:06;;;;;;;;;;;;;;;14.72;69.61;98039.77;1612532;87;24396;-86
2021/05/21 07:30:32;;;;;;;;;;;;;;;14.81;69.41;98037.58;1635690;86;20282;-86
2021/05/21 07:32:58;;;;;;;;;;;;;;;14.89;69.18;98035.56;1637458;85;20299;-86
2021/05/21 07:35:24;;;;;;;;;;;;;;;14.94;68.68;98034.64;1656392;85;21960;-86
2021/05/21 07:37:52;;;;;;;;;;;;;;;15.00;68.24;98038.83;1622007;86;26731;-86
2021/05/21 07:40:19;;;;;;;;;;;;;;;15.06;67.93;98042.69;1669244;85;24424;-86
2021/05/21 07:42:46;;;;;;;;;;;;;;;15.12;67.60;98036.84;1653763;85;20247;-85
2021/05/21 07:45:12;;;;;;;;;;;;;;;15.18;67.15;98034.94;1667978;85;24801;-85
2021/05/21 07:47:38;;;;;;;;;;;;;;;15.22;66.72;98038.94;1663619;84;22048;-86
2021/05/21 07:50:05;;;;;;;;;;;;;;;15.23;66.24;98039.28;1663898;85;26157;-86
2021/05/21 07:52:32;;;;;;;;;;;;;;;15.31;65.95;98034.61;1655074;85;24455;-86
2021/05/21 07:55:05;;;;;;;;;;;;;;;15.38;65.62;98027.79;1661682;84;20348;-86
2021/05/21 07:57:32;;;;;;;;;;;;;;;15.45;65.35;98024.88;1661844;85;24634;-86
2021/05/21 07:59:58;;;;;;;;;;;;;;;15.52;65.08;98020.72;1641146;84;22040;-86
2021/05/21 08:02:27;;;;;;;;;;;;;;;15.55;64.67;98009.86;1609855;87;26921;-86
2021/05/21 08:04:59;;;;;;;;;;;;;;;15.60;64.21;98019.47;1641371;86;24453;-86
2021/05/21 08:07:29;;;;;;;;;;;;;;;15.65;63.78;98019.89;1642997;85;20234;-86
2021/05/21 08:09:55;;;;;;;;;;;;;;;15.69;63.41;98017.28;1668711;83;24923;-87
2021/05/21 08:12:21;;;;;;;;;;;;;;;15.74;63.00;98022.11;1685947;83;22063;-86
2021/05/21 08:14:48;;;;;;;;;;;;;;;15.81;62.79;98017.90;1685809;83;26056;-86
2021/05/21 08:17:14;;;;;;;;;;;;;;;15.85;62.53;98018.77;1670906;83;24466;-87
2021/05/21 08:19:42;;;;;;;;;;;;;;;15.96;62.38;98014.23;1696788;83;20283;-86
2021/05/21 08:22:08;;;;;;;;;;;;;;;16.08;62.26;98020.47;1675953;83;24857;-86
2021/05/21 08:24:34;;;;;;;;;;;;;;;16.15;62.08;98016.22;1689333;83;22078;-86
2021/05/21 08:27:00;;;;;;;;;;;;;;;16.19;61.77;98018.91;1677963;83;25954;-86
2021/05/21 08:29:26;;;;;;;;;;;;;;;16.25;61.47;98018.30;1674853;83;24399;-86
2021/05/21 08:31:52;;;;;;;;;;;;;;;16.26;61.04;98008.06;1670808;83;20366;-87
2021/05/21 08:34:18;;;;;;;;;;;;;;;16.28;60.69;98014.52;1672223;83;24775;-87
2021/05/21 08:36:47;;;;;;;;;;;;;;;16.31;60.39;98007.10;1679899;83;20333;-87
2021/05/21 08:39:14;;;;;;;;;;;;;;;16.36;60.15;98000.06;1671541;83;26038;-87
2021/05/21 08:41:47;;;;;;;;;;;;;;;16.40;59.82;97999.26;1686996;84;25223;-87
2021/05/21 08:44:20;;;;;;;;;;;;;;;16.50;59.68;97996.02;1680569;84;20233;-87
2021/05/21 08:46:51;;;;;;;;;;;;;;;16.60;59.60;97996.29;1673775;84;24730;-87
2021/05/21 08:49:16;;;;;;;;;;;;;;;16.67;59.32;97996.02;1677722;84;22119;-87
2021/05/21 08:51:42;;;;;;;;;;;;;;;16.73;59.10;97995.88;1668576;84;25965;-86
2021/05/21 08:54:11;;;;;;;;;;;;;;;16.75;58.75;97995.21;1678207;83;24546;-87
2021/05/21 08:56:41;;;;;;;;;;;;;;;16.79;58.47;97985.18;1678628;84;20203;-87
2021/05/21 08:59:07;;;;;;;;;;;;;;;16.83;58.22;97981.23;1681907;84;24809;-86
2021/05/21 09:01:35;;;;;;;;;;;;;;;16.92;58.06;97974.50;1672087;83;20304;-86
2021/05/21 09:04:02;;;;;;;;;;;;;;;16.92;57.73;97963.92;1685932;83;26018;-86
2021/05/21 09:06:29;;;;;;;;;;;;;;;17.01;57.44;97971.41;1685741;83;25109;-87
2021/05/21 09:08:57;;;;;;;;;;;;;;;17.00;56.94;97966.62;1641373;84;20334;-87
2021/05/21 09:11:25;;;;;;;;;;;;;;;17.04;56.51;97966.63;1641847;86;24903;-86
2021/05/21 09:13:52;;;;;;;;;;;;;;;17.10;56.16;97969.95;1643629;86;22057;-90
2021/05/21 09:16:20;;;;;;;;;;;;;;;17.18;55.95;97959.09;1639557;86;26022;-88
2021/05/21 09:18:47;;;;;;;;;;;;;;;17.20;55.55;97955.77;1639974;86;24469;-88
2021/05/21 09:21:17;;;;;;;;;;;;;;;17.19;55.16;97950.14;1635767;85;20265;-87
2021/05/21 09:23:44;;;;;;;;;;;;;;;17.22;54.80;97945.88;1645882;85;25516;-87
2021/05/21 09:26:10;;;;;;;;;;;;;;;17.27;54.60;97943.56;1638602;85;21997;-88
2021/05/21 09:28:39;;;;;;;;;;;;;;;17.35;54.43;97946.22;1643875;86;26017;-90
2021/05/21 09:31:21;;;;;;;;;;;;;;;17.40;54.23;97942.10;1655048;85;24648;-87
2021/05/21 09:33:48;;;;;;;;;;;;;;;17.47;54.10;97940.47;1652053;85;20256;-87
2021/05/21 09:36:16;;;;;;;;;;;;;;;17.56;54.15;97921.49;1653406;86;24765;-86
2021/05/21 09:38:47;;;;;;;;;;;;;;;17.71;54.09;97917.23;1659596;85;22609;-87
2021/05/21 09:41:14;;;;;;;;;;;;;;;17.79;53.91;97923.84;1644022;85;26026;-87
2021/05/21 09:43:39;;;;;;;;;;;;;;;17.91;53.92;97907.96;1647830;86;24755;-87
2021/05/21 09:46:09;;;;;;;;;;;;;;;17.98;53.74;97915.58;1635021;86;20253;-86
2021/05/21 09:48:35;;;;;;;;;;;;;;;18.00;53.29;97911.95;1655922;85;24840;-87
2021/05/21 09:51:01;;;;;;;;;;;;;;;18.02;52.97;97900.17;1643343;85;21909;-87
2021/05/21 09:53:28;;;;;;;;;;;;;;;18.01;52.78;97893.22;1645345;86;26076;-87
2021/05/21 09:55:55;;;;;;;;;;;;;;;18.07;52.39;97897.02;1656266;86;24436;-86
2021/05/21 09:58:35;;;;;;;;;;;;;;;18.07;52.12;97895.70;1643939;86;20695;-87
2021/05/21 10:01:05;;;;;;;;;;;;;;;18.08;51.89;97888.09;1646604;86;24770;-86
2021/05/21 10:03:31;;;;;;;;;;;;;;;18.13;51.74;97875.17;1628899;86;21517;-87
2021/05/21 10:05:58;;;;;;;;;;;;;;;18.23;51.61;97879.78;1647110;85;26105;-87
2021/05/21 10:08:23;;;;;;;;;;;;;;;18.29;51.51;97874.64;1678559;83;24429;-87
2021/05/21 10:10:51;;;;;;;;;;;;;;;18.40;51.59;97869.48;1675859;83;20228;-86
2021/05/21 10:13:17;;;;;;;;;;;;;;;18.50;51.56;97856.86;1673765;83;24739;-85
2021/05/21 10:15:44;;;;;;;;;;;;;;;18.52;51.03;97857.52;1691215;83;22004;-86
2021/05/21 10:18:13;;;;;;;;;;;;;;;18.55;50.74;97855.88;1692541;83;25856;-87
2021/05/21 10:20:47;;;;;;;;;;;;;;;18.64;50.59;97855.37;1691592;83;24455;-86
2021/05/21 10:23:17;;;;;;;;;;;;;;;18.71;50.45;97846.53;1696553;83;20355;-87
2021/05/21 10:25:44;;;;;;;;;;;;;;;18.71;50.12;97843.88;1684408;83;24917;-86
2021/05/21 10:28:17;;;;;;;;;;;;;;;18.74;49.84;97838.25;1687975;83;22111;-86
2021/05/21 10:30:44;;;;;;;;;;;;;;;18.83;49.84;97832.89;1690328;83;25953;-86
2021/05/21 10:33:17;;;;;;;;;;;;;;;18.87;49.69;97835.55;1690263;83;24504;-87
2021/05/21 10:35:43;;;;;;;;;;;;;;;18.96;49.62;97831.34;1679587;83;20303;-87
2021/05/21 10:38:23;;;;;;;;;;;;;;;19.04;49.51;97831.28;1687739;83;25484;-86
2021/05/21 10:40:57;;;;;;;;;;;;;;;19.11;49.43;97818.98;1693444;83;21889;-86
2021/05/21 10:43:23;;;;;;;;;;;;;;;19.11;49.25;97815.50;1686259;83;25951;-85
2021/05/21 10:45:56;;;;;;;;;;;;;;;19.17;49.14;97814.30;1684827;83;25122;-86
2021/05/21 10:48:26;;;;;;;;;;;;;;;19.18;48.87;97811.98;1688315;83;20349;-86
2021/05/21 10:51:11;;;;;;;;;;;;;;;19.18;48.64;97808.50;1671705;83;25421;-86
2021/05/21 10:53:46;;;;;;;;;;;;;;;19.14;48.45;97808.03;1683368;83;21956;-86
2021/05/21 10:56:09;;;;;;;;;;;;;;;19.15;48.41;97804.36;1685450;83;26072;-87
2021/05/21 10:58:43;;;;;;;;;;;;;;;19.24;48.42;97809.12;1710775;83;24899;-87
2021/05/21 11:01:16;;;;;;;;;;;;;;;19.30;48.24;97800.46;1688610;83;20236;-86
2021/05/21 11:04:05;;;;;;;;;;;;;;;19.37;48.08;97795.25;1688556;83;24852;-86
2021/05/21 11:06:51;;;;;;;;;;;;;;;19.40;47.85;97796.23;1684189;83;22201;-86
2021/05/21 11:09:21;;;;;;;;;;;;;;;19.44;47.78;97783.75;1679927;83;26169;-86
2021/05/21 11:12:03;;;;;;;;;;;;;;;19.50;47.57;97791.03;1690687;84;24468;-87
2021/05/21 11:14:37;;;;;;;;;;;;;;;19.62;47.56;97795.41;1675570;84;20356;-86
2021/05/21 11:17:25;;;;;;;;;;;;;;;19.64;47.34;97788.08;1680320;84;25013;-87
2021/05/21 11:20:09;;;;;;;;;;;;;;;19.70;47.26;97787.86;1684663;84;22160;-86
2021/05/21 11:22:38;;;;;;;;;;;;;;;19.80;47.09;97795.09;1685896;83;26682;-87
2021/05/21 11:25:07;;;;;;;;;;;;;;;19.82;46.76;97787.75;1682630;84;24434;-88
2021/05/21 11:27:35;;;;;;;;;;;;;;;19.87;46.72;97785.38;1684094;84;20237;-87
2021/05/21 11:30:04;;;;;;;;;;;;;;;19.96;46.64;97776.34;1672988;84;24830;-86
2021/05/21 11:32:40;;;;;;;;;;;;;;;20.03;46.58;97770.59;1684498;83;22684;-86
2021/05/21 11:35:07;;;;;;;;;;;;;;;19.96;45.96;97773.69;1679109;83;26182;-86
2021/05/21 11:37:40;;;;;;;;;;;;;;;19.98;45.57;97772.98;1686959;83;24405;-86
2021/05/21 11:40:09;;;;;;;;;;;;;;;20.02;45.31;97770.27;1672997;84;20286;-86
2021/05/21 11:42:35;;;;;;;;;;;;;;;19.98;44.82;97769.00;1670294;84;24405;-86
2021/05/21 11:45:03;;;;;;;;;;;;;;;20.01;44.60;97772.63;1696824;83;22093;-86
2021/05/21 11:47:31;;;;;;;;;;;;;;;20.05;44.48;97768.59;1680647;84;25958;-86
2021/05/21 11:50:00;;;;;;;;;;;;;;;20.09;44.33;97769.05;1677997;84;24035;-86
2021/05/21 11:52:27;;;;;;;;;;;;;;;20.15;44.35;97765.16;1687903;83;20605;-86
2021/05/21 11:54:55;;;;;;;;;;;;;;;20.20;44.35;97769.91;1677685;83;24990;-86
2021/05/21 11:57:23;;;;;;;;;;;;;;;20.16;44.16;97760.17;1674817;83;21995;-86
2021/05/21 11:59:48;;;;;;;;;;;;;;;20.12;43.77;97760.72;1676569;84;26129;-86
2021/05/21 12:02:15;;;;;;;;;;;;;;;20.13;43.42;97750.42;1690924;84;20257;-86
2021/05/21 12:04:42;;;;;;;;;;;;;;;20.20;43.31;97751.31;1677369;83;20238;-86
2021/05/21 12:07:19;;;;;;;;;;;;;;;20.26;43.12;97746.09;1658660;84;25048;-86
2021/05/21 12:09:53;;;;;;;;;;;;;;;20.28;42.82;97741.43;1679286;83;22926;-86
2021/05/21 12:12:23;;;;;;;;;;;;;;;20.34;42.74;97733.25;1689897;83;26001;-86
2021/05/21 12:14:49;;;;;;;;;;;;;;;20.44;42.67;97733.78;1677616;83;24634;-86
2021/05/21 12:17:15;;;;;;;;;;;;;;;20.42;42.47;97728.64;1683953;83;20799;-86
2021/05/21 12:19:42;;;;;;;;;;;;;;;20.47;42.47;97732.06;1686583;83;24724;-87
2021/05/21 12:22:09;;;;;;;;;;;;;;;20.53;42.56;97719.86;1686807;83;22067;-87
2021/05/21 12:24:44;;;;;;;;;;;;;;;20.62;42.54;97719.55;1688399;83;25931;-86
2021/05/21 12:27:15;;;;;;;;;;;;;;;20.66;42.47;97706.73;1687796;83;24471;-87
2021/05/21 12:29:49;;;;;;;;;;;;;;;20.61;42.14;97709.13;1670396;83;20266;-87
2021/05/21 12:32:15;;;;;;;;;;;;;;;20.58;41.90;97697.52;1675994;83;24951;-87
2021/05/21 12:34:41;;;;;;;;;;;;;;;20.58;41.77;97686.89;1689363;83;22099;-87
2021/05/21 12:37:08;;;;;;;;;;;;;;;20.66;41.80;97690.77;1678385;83;26009;-87
2021/05/21 12:39:37;;;;;;;;;;;;;;;20.68;41.69;97688.23;1679748;83;24436;-86
2021/05/21 12:42:23;;;;;;;;;;;;;;;20.70;41.56;97688.05;1680427;83;20569;-87
2021/05/21 12:44:55;;;;;;;;;;;;;;;20.64;41.34;97689.63;1666794;84;24795;-87
2021/05/21 12:47:23;;;;;;;;;;;;;;;20.67;41.40;97694.58;1663364;85;22125;-87
2021/05/21 12:49:50;;;;;;;;;;;;;;;20.60;41.09;97692.34;1671054;83;26557;-87
2021/05/21 12:52:18;;;;;;;;;;;;;;;20.57;41.00;97686.06;1678760;83;24488;-87
2021/05/21 12:54:47;;;;;;;;;;;;;;;20.52;40.86;97687.64;1682786;83;20264;-86
2021/05/21 12:57:21;;;;;;;;;;;;;;;20.50;40.75;97700.31;1693284;83;24786;-87
2021/05/21 12:59:54;;;;;;;;;;;;;;;20.55;40.78;97704.56;1681127;83;22073;-87
2021/05/21 13:02:22;;;;;;;;;;;;;;;20.60;40.76;97710.14;1683974;83;25665;-87